Terminal Aerodrome Forecast
Issued by NWS Upton, NY

Current Version | Previous Version | Text Only | Print | Product List | Glossary On
Versions: 1 2 3 4 5 6 7 8 9 10 11 12 13 14 15 16 17 18 19 20 21 22 23 24 25 26 27 28 29 30 31
000
FTUS41 KOKX 110836 AAA
TAFJFK
TAF AMD
KJFK 110836Z 1109/1212 35005KT P6SM SCT050 BKN150
      TEMPO 1110/1114 5SM -SHRA BR BKN010 OVC050
     FM111400 34007KT P6SM VCSH SCT025 OVC050
     FM111600 25006KT P6SM FEW050 BKN150
     FM111900 17009KT P6SM SCT050
     FM120300 35010KT P6SM BKN250=

USA.gov is the U.S. government's official web portal to all federal, state and local government web resources and services.